Terminal Aerodrome Forecast
Issued by NWS

Home | Current Version | Previous Version | Text Only | Print | Product List | Glossary On
Versions: 1 2 3 4 5 6 7 8 9 10 11 12 13 14 15 16 17 18 19 20 21 22 23 24 25 26
000
FTUS44 KTSA 241700
TAFMLC
TAF
KMLC 241740Z 2418/2518 14008KT P6SM -RA SCT020 OVC050
      TEMPO 2418/2421 5SM -RA SCT025 BKN040
     FM242100 14008KT 6SM -RA SCT020 OVC050
      TEMPO 2421/2424 2SM TSRA OVC025CB
     FM250000 15006KT P6SM -RA OVC025=

USA.gov is the U.S. government's official web portal to all federal, state and local government web resources and services.